createdAt,value
2022-08-11T00:01:30.907Z,24.18
2022-08-11T00:06:32.147Z,23.93
2022-08-11T00:11:34.944Z,24.42
2022-08-11T00:16:35.257Z,24.37
2022-08-11T00:22:05.330Z,24.29
2022-08-11T00:27:53.926Z,24.18
2022-08-11T00:39:10.466Z,24.87
2022-08-11T00:44:26.104Z,24.77
2022-08-11T00:49:34.789Z,25.01
2022-08-11T00:55:09.650Z,24.70
2022-08-11T01:00:14.494Z,24.33
2022-08-11T01:05:51.729Z,24.31
2022-08-11T01:11:08.217Z,24.70
2022-08-11T01:16:48.070Z,25.11
2022-08-11T01:22:35.410Z,25.06
2022-08-11T01:28:18.760Z,25.22
2022-08-11T01:33:49.506Z,25.26
2022-08-11T01:39:18.677Z,25.18
2022-08-11T01:44:45.694Z,24.65
2022-08-11T01:50:08.813Z,25.18
2022-08-11T01:55:24.698Z,25.02
2022-08-11T02:00:31.324Z,24.79
2022-08-11T02:06:27.977Z,24.85
2022-08-11T02:11:35.211Z,24.58
2022-08-11T02:17:01.139Z,24.71
2022-08-11T02:22:24.510Z,24.61
2022-08-11T02:27:33.407Z,24.73
2022-08-11T02:32:59.609Z,24.72
2022-08-11T02:38:12.380Z,24.51
2022-08-11T02:43:41.612Z,24.63
2022-08-11T02:49:25.351Z,24.03
2022-08-11T02:54:34.519Z,24.08
2022-08-11T02:59:50.313Z,24.49
2022-08-11T03:05:07.785Z,24.31
2022-08-11T03:10:10.460Z,24.34
2022-08-11T03:15:34.269Z,23.91
2022-08-11T03:20:39.183Z,24.15
2022-08-11T03:25:46.850Z,23.95
2022-08-11T03:30:54.733Z,24.11
2022-08-11T03:36:05.818Z,24.13
2022-08-11T03:42:02.591Z,24.28
2022-08-11T03:47:13.340Z,24.46
2022-08-11T03:52:23.403Z,24.24
2022-08-11T03:57:54.437Z,24.57
2022-08-11T04:03:40.341Z,24.70
2022-08-11T04:09:09.895Z,24.69
2022-08-11T04:14:48.408Z,24.58
2022-08-11T04:20:16.478Z,24.61
2022-08-11T04:25:58.007Z,25.02
2022-08-11T04:31:07.192Z,24.93
2022-08-11T04:36:42.007Z,25.23
2022-08-11T04:42:34.745Z,25.42
2022-08-11T04:48:27.234Z,25.40
2022-08-11T04:54:00.974Z,25.59
2022-08-11T04:59:51.570Z,25.87
2022-08-11T05:05:22.024Z,26.16
2022-08-11T05:10:26.503Z,26.34
2022-08-11T05:15:52.830Z,26.53
2022-08-11T05:21:11.493Z,26.84
2022-08-11T05:26:47.745Z,26.49
2022-08-11T05:32:30.702Z,27.55
2022-08-11T05:37:38.931Z,28.35
2022-08-11T05:43:02.361Z,30.84
2022-08-11T05:48:19.285Z,33.06
2022-08-11T05:53:45.752Z,34.06
2022-08-11T05:58:46.981Z,36.77
2022-08-11T06:04:10.015Z,38.71
2022-08-11T06:09:07.451Z,40.90
2022-08-11T06:14:05.889Z,42.11
2022-08-11T06:19:26.093Z,43.11
2022-08-11T06:24:28.607Z,43.77
2022-08-11T06:29:54.513Z,43.90
2022-08-11T06:35:25.279Z,44.54
2022-08-11T06:40:36.277Z,44.68
2022-08-11T06:45:47.269Z,44.80
2022-08-11T06:51:08.194Z,45.79
2022-08-11T06:57:18.625Z,45.49
2022-08-11T07:02:21.751Z,45.49
2022-08-11T07:08:35.176Z,45.43
2022-08-11T07:13:49.820Z,45.44
2022-08-11T07:19:06.407Z,45.03
2022-08-11T07:24:59.307Z,44.93
2022-08-11T07:30:04.284Z,44.51
2022-08-11T07:35:12.713Z,43.48
2022-08-11T07:40:11.899Z,42.08
2022-08-11T07:45:28.822Z,40.87
2022-08-11T07:50:44.834Z,40.73
2022-08-11T07:55:53.626Z,40.40
2022-08-11T08:01:21.977Z,40.43
2022-08-11T08:06:39.692Z,39.98
2022-08-11T08:12:02.925Z,38.36
2022-08-11T08:17:17.867Z,37.60
2022-08-11T08:22:38.470Z,37.47
2022-08-11T08:27:55.760Z,36.41
2022-08-11T08:32:55.236Z,35.99
2022-08-11T08:37:53.256Z,35.53
2022-08-11T08:43:07.905Z,36.52
2022-08-11T08:48:11.935Z,36.45
2022-08-11T08:53:09.344Z,36.72
2022-08-11T08:58:25.384Z,36.43
2022-08-11T09:03:41.801Z,35.85
2022-08-11T09:14:05.151Z,36.32
2022-08-11T09:19:05.015Z,35.93
2022-08-11T09:24:29.377Z,35.02
2022-08-11T10:35:26.450Z,32.66
2022-08-11T10:41:21.709Z,33.75
2022-08-11T10:46:40.950Z,35.30
2022-08-11T10:52:01.361Z,36.06
2022-08-11T10:57:27.836Z,35.30
2022-08-11T11:02:35.835Z,33.94
2022-08-11T11:07:40.245Z,32.69
2022-08-11T11:13:07.921Z,32.40
2022-08-11T11:24:58.747Z,31.80
2022-08-11T11:30:47.841Z,32.27
2022-08-11T11:36:26.001Z,32.32
2022-08-11T11:42:01.181Z,32.71
2022-08-11T11:47:39.242Z,32.72
2022-08-11T11:53:06.004Z,32.35
2022-08-11T11:58:31.854Z,32.73
2022-08-11T12:09:34.882Z,31.89
2022-08-11T12:14:36.386Z,31.98
2022-08-11T12:19:41.503Z,32.48
2022-08-11T12:26:10.253Z,32.64
2022-08-11T12:30:29.898Z,32.56
2022-08-11T12:35:32.911Z,32.29
2022-08-11T12:41:15.550Z,31.53
2022-08-11T12:46:20.235Z,31.61
2022-08-11T12:52:13.614Z,31.74
2022-08-11T12:57:36.716Z,31.47
2022-08-11T13:02:54.130Z,31.29
2022-08-11T13:08:06.787Z,31.35
2022-08-11T13:13:55.313Z,31.62
2022-08-11T13:18:29.970Z,31.66
2022-08-11T13:23:29.186Z,32.24
2022-08-11T13:28:34.482Z,32.38
2022-08-11T13:33:37.078Z,32.31
2022-08-11T13:38:44.495Z,31.80
2022-08-11T13:43:45.952Z,32.25
2022-08-11T13:48:51.372Z,32.05
2022-08-11T13:54:08.929Z,32.25
2022-08-11T13:59:08.020Z,31.90
2022-08-11T14:04:31.085Z,31.44
2022-08-11T14:09:32.410Z,30.86
2022-08-11T14:14:35.357Z,31.10
2022-08-11T14:20:38.501Z,30.55
2022-08-11T14:26:03.357Z,30.77
2022-08-11T14:32:03.232Z,31.20
2022-08-11T14:37:11.545Z,31.14
2022-08-11T14:42:28.721Z,31.41
2022-08-11T14:47:30.368Z,31.19
2022-08-11T14:52:31.879Z,31.32
2022-08-11T14:57:59.200Z,31.51
2022-08-11T15:03:17.005Z,30.93
2022-08-11T15:08:49.946Z,30.64
2022-08-11T15:14:16.480Z,30.54
2022-08-11T15:19:16.570Z,30.78
2022-08-11T15:24:24.127Z,30.88
2022-08-11T15:29:54.328Z,31.02
2022-08-11T15:35:14.250Z,30.96
2022-08-11T15:40:46.290Z,31.20
2022-08-11T15:45:51.997Z,30.69
2022-08-11T15:51:08.899Z,30.38
2022-08-11T15:56:55.940Z,30.65
2022-08-11T16:02:16.094Z,30.38
2022-08-11T16:07:39.115Z,30.49
2022-08-11T16:13:15.187Z,30.69
2022-08-11T16:18:15.346Z,30.55
2022-08-11T16:23:37.969Z,30.37
2022-08-11T16:29:33.196Z,30.01
2022-08-11T16:35:34.054Z,29.57
2022-08-11T16:40:45.602Z,29.70
2022-08-11T16:46:05.975Z,29.67
2022-08-11T16:51:35.370Z,29.00
2022-08-11T16:56:39.167Z,29.40
2022-08-11T17:01:37.514Z,29.06
2022-08-11T17:07:01.006Z,28.82
2022-08-11T17:17:39.814Z,28.75
2022-08-11T17:22:59.198Z,28.85
2022-08-11T17:27:57.124Z,28.50
2022-08-11T17:33:31.058Z,28.56
2022-08-11T17:38:46.777Z,28.15
2022-08-11T17:44:16.760Z,28.30
2022-08-11T17:49:31.283Z,27.88
2022-08-11T17:54:49.642Z,28.23
2022-08-11T17:59:54.831Z,27.99
2022-08-11T18:04:54.518Z,28.24
2022-08-11T18:11:03.252Z,27.89
2022-08-11T18:16:28.607Z,28.27
2022-08-11T18:21:46.464Z,28.20
2022-08-11T18:27:51.790Z,28.30
2022-08-11T18:39:42.586Z,27.93
2022-08-11T18:46:14.071Z,27.55
2022-08-11T18:51:36.855Z,27.78
2022-08-11T18:56:53.913Z,27.40
2022-08-11T19:02:11.870Z,27.66
2022-08-11T19:07:40.824Z,27.47
2022-08-11T19:19:59.011Z,27.10
2022-08-11T19:26:10.517Z,27.29
2022-08-11T19:38:28.774Z,27.16
2022-08-11T19:44:11.448Z,27.10
2022-08-11T19:49:37.400Z,27.05
2022-08-11T19:55:08.047Z,27.04
2022-08-11T20:06:36.493Z,27.06
2022-08-11T20:13:55.162Z,26.94
2022-08-11T20:18:34.207Z,26.95
2022-08-11T20:24:10.697Z,26.42
2022-08-11T20:35:30.055Z,26.17
2022-08-11T20:41:02.210Z,26.32
2022-08-11T20:46:28.184Z,26.52
2022-08-11T20:51:43.949Z,26.30
2022-08-11T20:57:04.032Z,25.74
2022-08-11T21:02:36.146Z,26.19
2022-08-11T21:07:56.770Z,25.91
2022-08-11T21:13:26.828Z,26.00
2022-08-11T21:18:47.454Z,26.05
2022-08-11T21:24:03.593Z,25.86
2022-08-11T21:29:25.072Z,25.92
2022-08-11T21:34:41.812Z,25.59
2022-08-11T21:40:00.818Z,25.71
2022-08-11T21:45:23.187Z,25.72
2022-08-11T21:50:38.266Z,25.30
2022-08-11T21:56:04.482Z,25.22
2022-08-11T22:01:21.055Z,25.33
2022-08-11T22:12:34.275Z,25.64
2022-08-11T22:18:07.158Z,25.44
2022-08-11T22:23:23.041Z,24.92
2022-08-11T22:28:38.273Z,25.17
2022-08-11T22:34:02.285Z,25.24
2022-08-11T22:39:18.513Z,25.29
2022-08-11T22:44:33.914Z,25.21
2022-08-11T22:49:57.509Z,24.66
2022-08-11T22:55:14.634Z,24.90
2022-08-11T23:00:41.918Z,25.12
2022-08-11T23:05:58.787Z,25.06
2022-08-11T23:11:14.946Z,24.87
2022-08-11T23:16:46.013Z,24.82
2022-08-11T23:22:17.795Z,24.80
2022-08-11T23:27:43.131Z,24.40
2022-08-11T23:33:03.165Z,24.41
2022-08-11T23:38:41.238Z,24.04
2022-08-11T23:43:57.095Z,24.27
2022-08-11T23:49:17.008Z,23.96
2022-08-11T23:54:37.387Z,24.33
2022-08-11T23:59:53.259Z,24.38
